Seaside, California
Current Conditions -  °F | °C
As of 11:54 PM on Tuesday 21 Oct 2014 (Local Time) from KMRY Reporting Station
Clear Clear  
Wind Chill: 57°   Ceiling: Unl
Heat Index: 57°   Visibility: 10mi
Dew Point: 46°   Wind: 3mph
Humidity: 67%   Direction: 80°E
Pressure: 30.04"   Gusts: NA
Location:  36.6°N, 121.85°W
Report Text: KMRY 220654Z AUTO 08003KT 10SM CLR 14/08 A3004 RMK AO2 SLP183 T01390078
Loading
Personal Weather Stations






























Interactive Weather Map
Tropical Storm Tracking
New forecast layout! Learn more

10-Day Weather Forecast

Advertisements
Track Severe Weather on mobile